Time;durP1;ratioP1;P1;durP2;ratioP2;P2;SDS_P1;SDS_P2;PMS_P1;PMS_P2;Temp;Humidity;BMP_temperature;BMP_pressure;BME280_temperature;BME280_humidity;BME280_pressure;Samples;Min_cycle;Max_cycle;Signal;HPM_P1;HPM_P2
2023/10/07 00:02:22;;;;;;;19.75;5.32;;;;;;;16.99;100.00;102104.19;10605525;27;20105;-76
2023/10/07 00:07:30;;;;;;;12.52;5.25;;;;;;;17.07;100.00;102090.25;10587422;28;20047;-76
2023/10/07 00:12:30;;;;;;;14.90;5.07;;;;;;;17.10;100.00;102078.88;10587215;28;20085;-78
2023/10/07 00:17:31;;;;;;;10.75;5.03;;;;;;;17.23;100.00;102067.09;10586258;28;20084;-78
2023/10/07 00:22:40;;;;;;;5.65;3.90;;;;;;;17.40;100.00;102063.69;10585807;28;20047;-75
2023/10/07 00:27:41;;;;;;;17.33;4.72;;;;;;;17.43;100.00;102055.03;10583746;28;20055;-75
2023/10/07 00:32:45;;;;;;;10.63;3.88;;;;;;;17.38;100.00;102049.34;10592315;28;20126;-74
2023/10/07 00:37:45;;;;;;;17.15;6.13;;;;;;;17.34;100.00;102047.28;10584427;28;20126;-77
2023/10/07 00:42:46;;;;;;;12.15;4.35;;;;;;;17.35;100.00;102052.53;10588161;28;20461;-75
2023/10/07 00:47:49;;;;;;;7.05;3.97;;;;;;;17.47;100.00;102069.16;10594884;28;20061;-77
2023/10/07 00:52:56;;;;;;;14.25;5.35;;;;;;;17.50;100.00;102070.63;10583279;28;20419;-74
2023/10/07 01:08:20;;;;;;;7.47;4.65;;;;;;;17.64;100.00;102069.50;10583631;28;20051;-77
2023/10/07 01:13:29;;;;;;;8.45;4.75;;;;;;;17.69;100.00;102074.34;10583176;28;20032;-76
2023/10/07 01:18:30;;;;;;;4.03;3.63;;;;;;;17.75;100.00;102071.59;10584709;28;20126;-76
2023/10/07 01:23:33;;;;;;;6.35;5.13;;;;;;;17.78;100.00;102068.44;10585440;28;20454;-77
2023/10/07 01:28:40;;;;;;;18.77;5.50;;;;;;;17.79;100.00;102056.41;10585070;28;20040;-76
2023/10/07 01:33:47;;;;;;;13.35;4.93;;;;;;;17.77;100.00;102046.72;10582955;28;20035;-76
2023/10/07 01:38:53;;;;;;;5.70;4.60;;;;;;;17.74;100.00;102052.59;10584236;28;20032;-76
2023/10/07 01:43:59;;;;;;;12.80;4.90;;;;;;;17.75;100.00;102051.56;10585246;28;20034;-75
2023/10/07 01:49:11;;;;;;;7.65;5.10;;;;;;;17.75;100.00;102035.13;10584394;28;20443;-77
2023/10/07 01:54:12;;;;;;;16.67;4.90;;;;;;;17.71;100.00;102051.16;10581304;28;20477;-76
2023/10/07 02:04:18;;;;;;;13.35;5.75;;;;;;;17.60;100.00;102047.19;10582971;28;20036;-75
2023/10/07 02:09:25;;;;;;;11.38;5.03;;;;;;;17.62;100.00;102047.81;10584398;28;20039;-78
2023/10/07 02:14:27;;;;;;;10.82;4.45;;;;;;;17.62;100.00;102049.72;10585267;28;20044;-78
2023/10/07 02:19:31;;;;;;;12.48;6.32;;;;;;;17.61;100.00;102045.28;10581478;28;20031;-75
2023/10/07 02:24:33;;;;;;;12.98;3.92;;;;;;;17.52;100.00;102046.59;10581921;28;20100;-76
2023/10/07 02:29:34;;;;;;;14.98;5.05;;;;;;;17.44;100.00;102036.72;10583842;28;20039;-77
2023/10/07 02:34:34;;;;;;;10.32;5.15;;;;;;;17.47;100.00;102041.75;10564692;28;20040;-76
2023/10/07 02:39:45;;;;;;;14.35;5.18;;;;;;;17.48;100.00;102037.13;10597782;28;20351;-74
2023/10/07 02:44:46;;;;;;;5.05;4.15;;;;;;;17.56;100.00;102026.78;10603586;27;20050;-75
2023/10/07 02:49:49;;;;;;;19.23;5.45;;;;;;;17.56;100.00;102021.28;10587597;28;20035;-76
2023/10/07 02:55:12;;;;;;;15.43;5.90;;;;;;;17.57;100.00;102030.34;10588404;28;20067;-77
2023/10/07 03:00:29;;;;;;;18.83;5.68;;;;;;;17.55;100.00;102024.22;10588983;28;20051;-75
2023/10/07 03:05:29;;;;;;;16.65;5.15;;;;;;;17.54;100.00;102023.41;10589771;28;20478;-77
2023/10/07 03:20:47;;;;;;;6.13;4.28;;;;;;;17.62;100.00;102030.56;10587415;28;20477;-76
2023/10/07 03:30:56;;;;;;;12.75;4.93;;;;;;;17.65;100.00;102021.91;10588505;28;20027;-75
2023/10/07 03:40:57;;;;;;;8.00;5.00;;;;;;;17.71;100.00;102018.28;10588245;27;20059;-76
2023/10/07 03:45:58;;;;;;;19.20;5.32;;;;;;;17.72;100.00;102019.13;10603922;27;20032;-76
2023/10/07 03:51:05;;;;;;;16.20;5.63;;;;;;;17.72;100.00;102021.88;10588542;28;20035;-75
2023/10/07 03:56:07;;;;;;;7.22;4.75;;;;;;;17.72;100.00;102019.97;10588669;28;20031;-77
2023/10/07 04:01:17;;;;;;;6.93;4.38;;;;;;;17.71;100.00;102034.72;10587272;28;20114;-77
2023/10/07 04:06:21;;;;;;;14.77;4.47;;;;;;;17.69;100.00;101998.47;10588358;28;20031;-76
2023/10/07 04:11:28;;;;;;;12.10;4.97;;;;;;;17.71;100.00;102004.59;10587500;28;20039;-77
2023/10/07 04:16:32;;;;;;;6.22;3.60;;;;;;;17.70;100.00;102002.88;10588511;28;20436;-76
2023/10/07 04:21:39;;;;;;;17.17;3.83;;;;;;;17.72;100.00;101998.03;10585938;28;20058;-75
2023/10/07 04:26:41;;;;;;;11.97;4.37;;;;;;;17.73;100.00;102002.47;10587066;28;20156;-78
2023/10/07 04:31:45;;;;;;;11.02;3.17;;;;;;;17.64;100.00;101985.47;10583236;28;20425;-75
2023/10/07 04:42:03;;;;;;;11.38;4.40;;;;;;;17.47;100.00;101995.19;10568966;28;20039;-75
2023/10/07 04:47:20;;;;;;;28.17;3.85;;;;;;;17.35;100.00;101996.94;10583201;28;20027;-78
2023/10/07 04:52:24;;;;;;;8.10;4.15;;;;;;;17.25;100.00;101986.44;10585649;28;20031;-76
2023/10/07 05:02:44;;;;;;;4.82;4.35;;;;;;;17.33;100.00;101997.16;10583752;28;20068;-75
2023/10/07 05:07:45;;;;;;;10.25;4.38;;;;;;;17.33;100.00;101999.91;10603766;27;20035;-76
2023/10/07 05:12:45;;;;;;;9.73;3.95;;;;;;;17.36;100.00;102004.94;10586061;28;20038;-75
2023/10/07 05:17:45;;;;;;;14.70;5.85;;;;;;;17.40;100.00;102019.03;10582626;28;20115;-75
2023/10/07 05:22:46;;;;;;;8.02;5.20;;;;;;;17.38;100.00;102016.50;10582965;28;20349;-78
2023/10/07 05:27:47;;;;;;;8.90;5.05;;;;;;;17.40;100.00;102006.19;10582617;28;20063;-75
2023/10/07 05:32:48;;;;;;;7.28;3.33;;;;;;;17.38;100.00;102004.72;10585501;28;20028;-76
2023/10/07 05:37:49;;;;;;;10.73;5.03;;;;;;;17.43;100.00;102021.34;10599082;28;20031;-75
2023/10/07 05:42:50;;;;;;;11.98;5.10;;;;;;;17.31;100.00;102018.44;10581799;28;20035;-75
2023/10/07 05:47:51;;;;;;;18.58;6.18;;;;;;;17.35;100.00;102025.16;10583171;28;20031;-76
2023/10/07 05:52:51;;;;;;;8.82;4.88;;;;;;;17.37;100.00;102017.56;10580204;28;20038;-79
2023/10/07 05:57:52;;;;;;;15.23;4.75;;;;;;;17.46;100.00;102020.09;10581756;28;20074;-77
2023/10/07 06:02:53;;;;;;;16.23;4.95;;;;;;;17.44;100.00;102029.31;10579350;28;20131;-76
2023/10/07 06:07:59;;;;;;;15.20;4.57;;;;;;;17.37;100.00;102020.31;10580099;28;20458;-76
2023/10/07 06:13:08;;;;;;;10.18;5.35;;;;;;;17.41;100.00;102020.72;10584179;28;20043;-75
2023/10/07 06:18:08;;;;;;;17.52;5.80;;;;;;;17.32;100.00;102022.84;10597010;27;20036;-76
2023/10/07 06:23:15;;;;;;;8.13;4.10;;;;;;;17.22;100.00;102008.75;10579614;27;20031;-76
2023/10/07 06:28:29;;;;;;;6.95;4.97;;;;;;;17.17;100.00;101986.69;10582189;28;20110;-74
2023/10/07 06:33:31;;;;;;;13.70;5.85;;;;;;;17.29;100.00;101987.66;10580411;28;20040;-79
2023/10/07 06:38:33;;;;;;;12.45;5.38;;;;;;;17.37;100.00;102003.03;10581017;28;20123;-75
2023/10/07 06:43:33;;;;;;;18.83;5.55;;;;;;;17.28;100.00;102018.00;10581055;28;20042;-76
2023/10/07 06:48:34;;;;;;;13.18;5.15;;;;;;;17.31;100.00;102034.00;10597544;28;20036;-75
2023/10/07 06:53:42;;;;;;;8.77;5.53;;;;;;;17.35;100.00;102029.78;10578942;28;20087;-76
2023/10/07 06:58:43;;;;;;;22.83;6.85;;;;;;;17.48;100.00;102039.84;10563132;28;20451;-75
2023/10/07 07:03:44;;;;;;;11.30;6.05;;;;;;;17.56;100.00;102018.56;10580062;28;20084;-75
2023/10/07 07:08:44;;;;;;;13.25;6.53;;;;;;;17.78;100.00;102056.66;10579598;28;20050;-75
2023/10/07 07:13:45;;;;;;;9.05;5.93;;;;;;;17.76;100.00;102059.56;10579497;28;20031;-75
2023/10/07 07:18:45;;;;;;;6.28;4.45;;;;;;;17.87;100.00;102063.56;10579551;28;20117;-74
2023/10/07 07:23:49;;;;;;;15.02;5.47;;;;;;;18.58;100.00;102055.09;10578045;28;20094;-72
2023/10/07 07:28:54;;;;;;;7.22;5.03;;;;;;;18.90;100.00;102076.22;10588469;28;20371;-73
2023/10/07 07:34:06;;;;;;;8.85;4.95;;;;;;;19.21;100.00;102081.63;10599721;28;20035;-74
2023/10/07 07:39:09;;;;;;;30.13;5.68;;;;;;;20.07;100.00;102088.06;10590863;28;20424;-75
2023/10/07 07:44:15;;;;;;;12.20;4.82;;;;;;;20.81;100.00;102080.41;10587292;28;20084;-74
2023/10/07 07:49:17;;;;;;;5.63;4.63;;;;;;;21.23;100.00;102062.97;10587157;28;20041;-74
2023/10/07 07:54:18;;;;;;;9.45;5.50;;;;;;;21.74;100.00;102066.84;10583624;28;20035;-75
2023/10/07 07:59:18;;;;;;;12.32;5.93;;;;;;;22.09;100.00;102052.09;10592971;28;20039;-76
2023/10/07 08:04:42;;;;;;;9.60;4.80;;;;;;;22.23;100.00;102067.28;10585934;28;20093;-74
2023/10/07 08:09:44;;;;;;;12.70;5.70;;;;;;;22.19;100.00;102074.41;10583275;28;20164;-75
2023/10/07 08:14:46;;;;;;;23.52;5.50;;;;;;;22.20;100.00;102076.06;10583622;28;20448;-73
2023/10/07 08:19:50;;;;;;;10.10;4.60;;;;;;;22.60;100.00;102073.22;10582965;28;20333;-74
2023/10/07 08:24:52;;;;;;;11.73;5.00;;;;;;;22.69;100.00;102079.19;10583202;28;20123;-74
2023/10/07 08:29:54;;;;;;;8.38;4.90;;;;;;;22.86;99.49;102074.47;10599792;27;20051;-74
2023/10/07 08:34:59;;;;;;;14.90;5.72;;;;;;;23.42;95.79;102074.50;10583821;28;20461;-75
2023/10/07 08:40:11;;;;;;;8.57;5.05;;;;;;;23.55;93.72;102073.31;10584595;28;20393;-73
2023/10/07 08:45:15;;;;;;;12.48;4.80;;;;;;;23.74;90.88;102071.94;10583307;28;20072;-72
2023/10/07 08:50:18;;;;;;;7.03;5.22;;;;;;;23.67;89.87;102071.25;10582948;28;20527;-74
2023/10/07 08:55:19;;;;;;;15.48;5.53;;;;;;;23.25;90.01;102099.44;10584834;28;20024;-74
2023/10/07 09:00:21;;;;;;;11.07;5.43;;;;;;;22.21;98.36;102097.91;10581734;28;20027;-74
2023/10/07 09:05:24;;;;;;;13.15;4.93;;;;;;;21.22;100.00;102084.16;10583835;28;20065;-80
2023/10/07 09:10:28;;;;;;;9.45;3.50;;;;;;;21.36;100.00;102062.72;10583115;28;20027;-77
2023/10/07 09:15:34;;;;;;;14.05;5.82;;;;;;;22.01;100.00;102059.66;10583003;28;20116;-75
2023/10/07 09:20:43;;;;;;;12.27;5.95;;;;;;;22.58;97.18;102060.75;10581293;28;20047;-73
2023/10/07 09:25:50;;;;;;;13.82;5.80;;;;;;;23.39;95.79;102059.28;10581981;28;20046;-81
2023/10/07 09:30:51;;;;;;;5.63;4.85;;;;;;;23.87;89.23;102065.19;10586763;28;20035;-78
2023/10/07 09:41:24;;;;;;;9.13;4.97;;;;;;;24.30;87.28;102091.94;10581669;28;20028;-72
2023/10/07 09:46:39;;;;;;;17.35;5.53;;;;;;;24.15;79.51;102100.06;10581888;28;20062;-77
2023/10/07 09:51:47;;;;;;;15.40;5.73;;;;;;;24.44;76.38;102102.63;10563987;28;20043;-80
2023/10/07 09:56:58;;;;;;;14.00;5.65;;;;;;;24.36;73.19;102101.16;10583292;28;20351;-64
2023/10/07 10:02:51;;;;;;;17.00;4.68;;;;;;;24.79;68.45;102099.34;10581147;28;20080;-74
2023/10/07 10:08:27;;;;;;;12.73;4.85;;;;;;;25.22;67.66;102078.09;10546458;28;20398;-75
2023/10/07 10:18:51;;;;;;;6.35;4.43;;;;;;;25.87;65.44;102087.06;10558934;28;20078;-75
2023/10/07 10:23:51;;;;;;;9.20;4.85;;;;;;;25.83;62.56;102081.22;10561899;28;20394;-74
2023/10/07 10:29:07;;;;;;;12.88;4.63;;;;;;;25.63;61.55;102076.38;10561548;28;20047;-66
2023/10/07 10:34:14;;;;;;;5.13;4.57;;;;;;;25.20;63.18;102095.00;10564911;28;20031;-73
2023/10/07 10:39:25;;;;;;;10.85;5.25;;;;;;;25.29;64.68;102089.78;10583135;28;20043;-74
2023/10/07 10:44:26;;;;;;;7.38;4.93;;;;;;;25.29;63.13;102103.66;10580793;28;20382;-73
2023/10/07 10:49:27;;;;;;;10.55;4.30;;;;;;;24.97;66.81;102118.34;10577992;28;20035;-64
2023/10/07 10:54:28;;;;;;;6.82;4.22;;;;;;;25.39;66.11;102113.97;10561789;28;20032;-78
2023/10/07 10:59:42;;;;;;;5.55;3.53;;;;;;;25.83;63.14;102106.19;10579441;28;20032;-74
2023/10/07 11:05:02;;;;;;;9.48;5.88;;;;;;;25.49;61.45;102100.16;10581984;28;20052;-75
2023/10/07 11:10:04;;;;;;;9.05;4.32;;;;;;;25.14;63.47;102109.91;10587659;28;20036;-71
2023/10/07 11:15:13;;;;;;;8.25;4.88;;;;;;;24.78;68.52;102101.28;10584574;28;20114;-73
2023/10/07 11:20:19;;;;;;;5.55;4.40;;;;;;;24.18;71.78;102113.41;10585135;28;20020;-71
2023/10/07 11:25:22;;;;;;;;;;;;;;;24.65;71.74;102110.03;10587555;28;20406;-75
2023/10/07 11:30:24;;;;;;;9.68;4.93;;;;;;;24.55;69.94;102116.31;10585816;28;19915;-76
2023/10/07 11:35:27;;;;;;;16.85;6.80;;;;;;;24.03;71.58;102113.25;10586319;28;20031;-75
2023/10/07 11:40:30;;;;;;;11.52;4.53;;;;;;;24.29;70.73;102125.44;10587057;28;20032;-73
2023/10/07 11:45:31;;;;;;;6.40;4.43;;;;;;;24.54;67.99;102120.19;10585088;28;20100;-73
2023/10/07 11:50:35;;;;;;;10.15;4.47;;;;;;;24.69;68.11;102116.72;10586747;28;20035;-75
2023/10/07 11:55:35;;;;;;;8.40;4.55;;;;;;;24.32;71.55;102125.75;10586136;28;20100;-74
2023/10/07 12:00:36;;;;;;;8.38;5.40;;;;;;;24.38;71.13;102132.19;10602171;27;20481;-75
2023/10/07 12:05:42;;;;;;;9.80;5.95;;;;;;;23.94;73.50;102123.91;10585995;28;20455;-74
2023/10/07 12:10:43;;;;;;;12.18;5.85;;;;;;;23.27;78.43;102126.81;10582956;28;20056;-75
2023/10/07 12:15:43;;;;;;;8.18;5.18;;;;;;;22.93;80.95;102121.28;10582540;28;20088;-73
2023/10/07 12:20:44;;;;;;;14.60;4.93;;;;;;;22.86;82.11;102117.84;10583523;28;20106;-72
2023/10/07 12:25:45;;;;;;;7.60;4.85;;;;;;;22.90;82.98;102111.56;10601144;27;20056;-71
2023/10/07 12:30:49;;;;;;;12.82;5.90;;;;;;;22.66;83.84;102113.63;10584260;28;20093;-73
2023/10/07 12:35:49;;;;;;;10.07;5.88;;;;;;;23.15;82.79;102110.34;10582475;28;20408;-71
2023/10/07 12:40:50;;;;;;;15.25;5.22;;;;;;;23.69;79.58;102084.88;10514500;28;20047;-75
2023/10/07 12:45:50;;;;;;;7.05;4.05;;;;;;;24.36;74.42;102101.97;10583805;28;20458;-75
2023/10/07 12:50:50;;;;;;;8.88;5.75;;;;;;;24.11;76.52;102108.06;10586394;28;20089;-76
2023/10/07 12:55:51;;;;;;;14.13;5.22;;;;;;;24.09;76.93;102078.97;10584324;28;20104;-75
2023/10/07 13:00:52;;;;;;;7.57;5.07;;;;;;;23.52;77.73;102062.78;10584157;28;20123;-74
2023/10/07 13:05:54;;;;;;;10.57;5.85;;;;;;;22.82;82.64;102136.84;10581714;28;20146;-75
2023/10/07 13:10:54;;;;;;;4.72;4.00;;;;;;;22.56;85.74;102101.56;10583057;28;20087;-75
2023/10/07 13:15:56;;;;;;;15.45;6.47;;;;;;;22.42;87.28;102126.72;10580765;28;20512;-72
2023/10/07 13:20:57;;;;;;;11.38;5.55;;;;;;;22.66;87.82;102101.75;10581317;28;20443;-76
2023/10/07 13:25:58;;;;;;;7.93;3.88;;;;;;;23.01;85.80;102120.06;10581831;28;20100;-76
2023/10/07 13:30:58;;;;;;;9.10;4.40;;;;;;;22.98;85.26;102102.88;10580627;28;20047;-77
2023/10/07 13:36:00;;;;;;;10.25;3.40;;;;;;;23.67;85.15;102118.25;10599223;27;20055;-77
2023/10/07 13:41:00;;;;;;;6.50;4.68;;;;;;;23.71;81.85;102105.66;10580388;28;20085;-77
2023/10/07 13:46:11;;;;;;;22.30;7.50;;;;;;;23.89;81.04;102101.72;10581488;28;20118;-76
2023/10/07 13:51:12;;;;;;;13.18;5.30;;;;;;;23.27;83.74;102097.25;10580415;28;20032;-75
2023/10/07 13:56:23;;;;;;;20.20;6.50;;;;;;;23.01;87.92;102106.25;10579762;28;20529;-74
2023/10/07 14:01:23;;;;;;;9.02;6.10;;;;;;;22.83;89.13;102094.31;10579159;28;20035;-74
2023/10/07 14:06:27;;;;;;;12.20;6.70;;;;;;;22.66;90.37;102099.00;10579678;28;20032;-75
2023/10/07 14:11:27;;;;;;;18.17;7.57;;;;;;;22.36;93.06;102079.94;10578670;28;20035;-74
2023/10/07 14:16:28;;;;;;;15.70;5.25;;;;;;;22.07;97.93;102115.78;10580442;28;20035;-77
2023/10/07 14:21:30;;;;;;;20.50;5.72;;;;;;;21.82;100.00;102100.41;10578332;28;20115;-76
2023/10/07 14:26:34;;;;;;;11.57;6.47;;;;;;;21.56;100.00;102095.41;10579459;28;20059;-72
2023/10/07 14:31:36;;;;;;;20.45;5.78;;;;;;;21.30;100.00;102055.41;10579934;28;20035;-75
2023/10/07 14:36:39;;;;;;;11.25;6.25;;;;;;;21.53;100.00;102062.81;10578214;28;20112;-75
2023/10/07 14:41:41;;;;;;;10.13;5.63;;;;;;;21.40;100.00;102055.66;10586572;28;20055;-70
2023/10/07 14:46:44;;;;;;;18.42;6.18;;;;;;;21.30;100.00;102058.16;10592503;28;20466;-73
2023/10/07 14:51:47;;;;;;;11.30;5.70;;;;;;;21.23;100.00;102049.19;10588681;27;20362;-73
2023/10/07 14:56:47;;;;;;;14.60;5.90;;;;;;;21.22;100.00;102044.72;10586962;27;20470;-71
2023/10/07 15:01:48;;;;;;;18.63;6.18;;;;;;;20.80;100.00;102031.09;10586921;28;20024;-71
2023/10/07 15:06:48;;;;;;;16.23;5.93;;;;;;;20.60;100.00;102042.44;10570802;28;20028;-72
2023/10/07 15:11:50;;;;;;;12.88;5.97;;;;;;;20.46;100.00;102061.06;10586109;28;20032;-71
2023/10/07 15:16:51;;;;;;;16.65;6.25;;;;;;;20.38;100.00;102055.88;10588213;28;20454;-72
2023/10/07 15:21:51;;;;;;;20.65;6.40;;;;;;;20.37;100.00;102062.47;10585217;28;20055;-73
2023/10/07 15:26:52;;;;;;;17.63;7.50;;;;;;;20.33;100.00;102064.00;10587126;28;20055;-72
2023/10/07 15:31:52;;;;;;;16.85;7.90;;;;;;;20.26;100.00;102077.84;10585937;28;20032;-72
2023/10/07 15:36:56;;;;;;;20.17;6.53;;;;;;;20.21;100.00;102084.03;10585841;28;20445;-73
2023/10/07 15:41:56;;;;;;;22.02;6.15;;;;;;;20.17;100.00;102084.75;10585030;28;20053;-70
2023/10/07 15:46:58;;;;;;;16.38;6.93;;;;;;;20.18;100.00;102072.69;10584251;28;20137;-71
2023/10/07 15:51:58;;;;;;;19.67;7.60;;;;;;;20.07;100.00;102073.44;10585582;28;20032;-73
2023/10/07 15:57:00;;;;;;;14.68;7.03;;;;;;;19.82;100.00;102062.59;10584264;28;20130;-72
2023/10/07 16:02:02;;;;;;;14.05;5.93;;;;;;;19.69;100.00;102066.34;10584036;28;20036;-71
2023/10/07 16:07:04;;;;;;;15.95;7.38;;;;;;;19.62;100.00;102085.63;10584870;28;20063;-71
2023/10/07 16:12:07;;;;;;;12.13;6.25;;;;;;;19.61;100.00;102100.41;10585316;28;20032;-72
2023/10/07 16:17:09;;;;;;;31.75;6.82;;;;;;;19.46;100.00;102109.06;10585184;28;20039;-72
2023/10/07 16:22:09;;;;;;;13.23;7.57;;;;;;;19.38;100.00;102117.56;10584633;28;20035;-70
2023/10/07 16:27:10;;;;;;;26.08;8.15;;;;;;;19.32;100.00;102123.13;10599172;27;20486;-72
2023/10/07 16:32:10;;;;;;;22.08;7.57;;;;;;;19.24;100.00;102110.50;10583831;28;20463;-72
2023/10/07 16:37:14;;;;;;;23.95;8.23;;;;;;;19.11;100.00;102105.16;10581515;28;20036;-72
2023/10/07 16:42:14;;;;;;;29.52;8.15;;;;;;;18.92;100.00;102101.50;10583563;28;20072;-71
2023/10/07 16:47:15;;;;;;;13.77;5.28;;;;;;;18.83;100.00;102113.84;10581231;28;20028;-72
2023/10/07 16:52:15;;;;;;;20.27;7.38;;;;;;;18.82;100.00;102115.75;10582842;28;20035;-71
2023/10/07 16:57:16;;;;;;;14.48;6.90;;;;;;;18.65;100.00;102096.22;10583376;28;20043;-71
2023/10/07 17:02:17;;;;;;;12.85;6.90;;;;;;;18.60;100.00;102098.75;10581865;28;20043;-72
2023/10/07 17:07:17;;;;;;;19.10;6.57;;;;;;;18.53;100.00;102097.97;10581626;28;20055;-72
2023/10/07 17:12:18;;;;;;;9.07;6.85;;;;;;;18.47;100.00;102098.84;10582761;28;20101;-71
2023/10/07 17:17:19;;;;;;;32.38;7.93;;;;;;;18.42;100.00;102085.00;10582756;28;20032;-71
2023/10/07 17:22:19;;;;;;;20.40;6.85;;;;;;;18.46;100.00;102094.44;10564053;28;20041;-71
2023/10/07 17:27:20;;;;;;;12.60;7.32;;;;;;;18.30;100.00;102077.44;10579532;28;20078;-71
2023/10/07 17:32:21;;;;;;;16.20;7.65;;;;;;;18.29;100.00;102091.41;10580799;28;20071;-72
2023/10/07 17:37:22;;;;;;;18.02;7.10;;;;;;;18.19;100.00;102100.09;10580927;28;20032;-71
2023/10/07 17:42:23;;;;;;;23.23;7.45;;;;;;;18.10;100.00;102098.66;10581978;28;20036;-73
2023/10/07 17:47:23;;;;;;;16.05;8.50;;;;;;;18.08;100.00;102095.28;10597551;27;20061;-72
2023/10/07 17:52:24;;;;;;;20.23;8.98;;;;;;;18.00;100.00;102074.47;10578956;28;20042;-71
2023/10/07 17:57:25;;;;;;;21.45;9.13;;;;;;;18.16;100.00;102091.47;10579291;28;20130;-72
2023/10/07 18:02:27;;;;;;;17.98;8.07;;;;;;;18.19;100.00;102086.38;10579272;28;20080;-72
2023/10/07 18:07:28;;;;;;;18.45;8.25;;;;;;;18.18;100.00;102073.72;10579557;28;20028;-72
2023/10/07 18:12:29;;;;;;;18.08;6.88;;;;;;;18.10;100.00;102076.72;10583361;28;20126;-71
2023/10/07 18:17:29;;;;;;;17.23;7.60;;;;;;;18.02;100.00;102080.53;10583073;28;20125;-73
2023/10/07 18:22:30;;;;;;;11.05;7.28;;;;;;;17.97;100.00;102087.75;10582625;28;20447;-73
2023/10/07 18:27:30;;;;;;;17.25;6.20;;;;;;;17.96;100.00;102088.81;10582783;28;20312;-72
2023/10/07 18:32:31;;;;;;;36.80;9.35;;;;;;;17.98;100.00;102086.69;10585535;28;20436;-70
2023/10/07 18:37:32;;;;;;;16.02;7.90;;;;;;;17.97;100.00;102090.50;10581948;28;20063;-72
2023/10/07 18:42:32;;;;;;;15.43;6.97;;;;;;;17.99;100.00;102091.94;10578104;28;20153;-71
2023/10/07 18:47:33;;;;;;;18.13;7.13;;;;;;;18.02;100.00;102094.25;10580089;28;20039;-72
2023/10/07 18:52:34;;;;;;;17.85;7.78;;;;;;;18.00;100.00;102098.28;10578310;28;20053;-72
2023/10/07 18:57:38;;;;;;;20.83;6.72;;;;;;;17.98;100.00;102114.94;10594686;28;20063;-70
2023/10/07 19:02:40;;;;;;;16.73;8.50;;;;;;;17.95;100.00;102126.34;10578798;28;20043;-72
2023/10/07 19:07:41;;;;;;;30.52;7.63;;;;;;;17.88;100.00;102133.75;10595129;28;20073;-72
2023/10/07 19:12:42;;;;;;;19.15;8.35;;;;;;;17.86;100.00;102160.50;10577423;28;20128;-71
2023/10/07 19:17:43;;;;;;;38.25;8.45;;;;;;;17.79;100.00;102179.72;10560205;28;20080;-72
2023/10/07 19:22:43;;;;;;;14.80;7.18;;;;;;;17.76;100.00;102185.59;10593242;28;20127;-71
2023/10/07 19:27:43;;;;;;;27.00;7.35;;;;;;;17.71;100.00;102171.72;10583824;28;20072;-72
2023/10/07 19:32:44;;;;;;;27.85;8.07;;;;;;;17.71;100.00;102166.22;10584888;28;20040;-73
2023/10/07 19:37:44;;;;;;;18.75;8.02;;;;;;;17.73;100.00;102166.84;10583977;28;20455;-71
2023/10/07 19:42:45;;;;;;;36.65;6.85;;;;;;;17.76;100.00;102165.56;10584538;28;20047;-72
2023/10/07 19:47:45;;;;;;;25.88;7.57;;;;;;;17.67;100.00;102154.00;10585438;28;20119;-73
2023/10/07 19:52:46;;;;;;;29.25;7.43;;;;;;;17.74;100.00;102170.41;10583585;28;20063;-71
2023/10/07 19:57:46;;;;;;;21.00;6.38;;;;;;;17.73;100.00;102163.25;10584668;28;20073;-72
2023/10/07 20:02:50;;;;;;;15.52;8.27;;;;;;;17.76;100.00;102162.84;10582863;28;20064;-72
2023/10/07 20:07:56;;;;;;;20.52;9.63;;;;;;;17.73;100.00;102175.06;10583175;28;20043;-72
2023/10/07 20:12:58;;;;;;;18.30;7.45;;;;;;;17.71;100.00;102177.19;10583143;28;20089;-72
2023/10/07 20:17:59;;;;;;;17.58;8.13;;;;;;;17.68;100.00;102166.66;10583170;28;20082;-71
2023/10/07 20:22:59;;;;;;;31.08;9.80;;;;;;;17.66;100.00;102166.84;10582631;28;20133;-73
2023/10/07 20:27:59;;;;;;;15.90;7.57;;;;;;;17.79;100.00;102179.72;10582846;27;20194;-72
2023/10/07 20:33:02;;;;;;;21.98;9.32;;;;;;;17.89;100.00;102193.81;10583432;28;20039;-71
2023/10/07 20:38:04;;;;;;;18.33;7.32;;;;;;;17.93;100.00;102179.69;10599393;27;20067;-72
2023/10/07 20:43:04;;;;;;;20.98;6.75;;;;;;;18.01;100.00;102188.50;10583054;28;20031;-73
2023/10/07 20:48:05;;;;;;;15.40;7.45;;;;;;;18.07;100.00;102187.66;10582618;28;20035;-73
2023/10/07 20:53:05;;;;;;;21.88;8.27;;;;;;;18.10;100.00;102186.38;10565306;28;20027;-73
2023/10/07 20:58:07;;;;;;;15.25;5.47;;;;;;;18.23;100.00;102193.72;10583671;28;20031;-73
2023/10/07 21:03:07;;;;;;;14.77;7.00;;;;;;;18.28;100.00;102194.75;10582741;28;20432;-72
2023/10/07 21:08:08;;;;;;;26.65;7.57;;;;;;;18.35;100.00;102206.53;10581335;28;20062;-73
2023/10/07 21:13:08;;;;;;;27.20;6.57;;;;;;;18.35;100.00;102190.06;10581368;28;20031;-72
2023/10/07 21:18:09;;;;;;;21.95;8.93;;;;;;;18.46;100.00;102201.41;10580709;28;20224;-72
2023/10/07 21:23:13;;;;;;;24.27;6.85;;;;;;;18.47;100.00;102200.34;10580635;28;20429;-72
2023/10/07 21:28:14;;;;;;;27.90;6.88;;;;;;;18.51;100.00;102201.63;10563392;28;20047;-72
2023/10/07 21:33:16;;;;;;;28.33;7.22;;;;;;;18.52;100.00;102203.28;10581322;28;20051;-72
2023/10/07 21:38:17;;;;;;;18.33;7.63;;;;;;;18.48;100.00;102204.78;10579334;28;20034;-72
2023/10/07 21:43:18;;;;;;;21.00;6.38;;;;;;;18.46;100.00;102205.00;10580852;28;20046;-72
2023/10/07 21:48:18;;;;;;;14.75;6.47;;;;;;;18.45;100.00;102197.84;10515248;28;20051;-70
2023/10/07 21:53:19;;;;;;;20.08;8.48;;;;;;;18.45;100.00;102205.22;10562603;28;20043;-71
2023/10/07 21:58:19;;;;;;;18.88;7.72;;;;;;;18.40;100.00;102197.63;10578967;28;20118;-72
2023/10/07 22:03:20;;;;;;;29.40;7.95;;;;;;;18.46;100.00;102198.69;10581197;28;20039;-72
2023/10/07 22:08:20;;;;;;;14.02;5.90;;;;;;;18.50;100.00;102206.22;10564012;28;20469;-72
2023/10/07 22:13:22;;;;;;;20.63;6.70;;;;;;;18.46;100.00;102202.25;10582589;28;20038;-73
2023/10/07 22:18:23;;;;;;;25.60;7.00;;;;;;;18.55;100.00;102208.34;10562420;28;20390;-74
2023/10/07 22:23:26;;;;;;;26.83;11.45;;;;;;;18.63;100.00;102218.19;10578535;28;20027;-73
2023/10/07 22:28:27;;;;;;;30.40;12.07;;;;;;;18.63;100.00;102208.06;10577955;28;20051;-73
2023/10/07 22:33:31;;;;;;;29.63;7.43;;;;;;;18.69;100.00;102226.41;10578966;28;20477;-73
2023/10/07 22:38:32;;;;;;;23.20;6.50;;;;;;;18.81;100.00;102226.59;10579958;28;20057;-74
2023/10/07 22:43:34;;;;;;;11.25;7.32;;;;;;;18.90;100.00;102232.66;10578332;28;20084;-74
2023/10/07 22:48:35;;;;;;;13.45;6.32;;;;;;;19.01;100.00;102232.78;10578377;28;20118;-74
2023/10/07 22:53:41;;;;;;;21.48;7.10;;;;;;;19.03;100.00;102235.31;10577445;28;20047;-73
2023/10/07 22:58:45;;;;;;;20.27;5.93;;;;;;;19.05;100.00;102233.22;10577715;28;20076;-73
2023/10/07 23:03:49;;;;;;;27.63;8.82;;;;;;;19.07;100.00;102225.56;10569507;28;20043;-72
2023/10/07 23:14:06;;;;;;;15.20;6.70;;;;;;;19.02;100.00;102233.66;10569419;28;20439;-72
2023/10/07 23:19:09;;;;;;;16.38;6.28;;;;;;;19.03;100.00;102246.31;10588702;28;20447;-71
2023/10/07 23:24:09;;;;;;;15.95;5.90;;;;;;;18.98;100.00;102246.13;10601992;27;20492;-71
2023/10/07 23:29:10;;;;;;;29.38;8.35;;;;;;;18.87;100.00;102235.84;10586733;28;20060;-71
2023/10/07 23:39:59;;;;;;;20.92;7.05;;;;;;;18.77;100.00;102241.81;10558775;28;20042;-73
2023/10/07 23:45:06;;;;;;;32.53;6.63;;;;;;;18.78;100.00;102251.72;10585845;28;20027;-73
2023/10/07 23:50:15;;;;;;;10.55;6.50;;;;;;;18.71;100.00;102270.09;10602407;27;20031;-73
2023/10/07 23:55:28;;;;;;;12.20;7.13;;;;;;;18.60;100.00;102279.84;10602045;27;20031;-72
